createdAt,value
2023-03-23T15:58:20.760Z,66.20
2023-03-23T16:00:47.563Z,65.40
2023-03-23T16:03:25.387Z,66.10
2023-03-23T16:05:52.266Z,66.20
2023-03-23T16:08:19.172Z,66.30
2023-03-23T16:10:46.101Z,66.20
2023-03-23T16:13:12.960Z,66.80
2023-03-23T16:15:39.789Z,67.70
2023-03-23T16:18:06.919Z,69.50
2023-03-23T16:20:34.060Z,68.30
2023-03-23T16:23:01.148Z,69.90
2023-03-23T16:25:28.028Z,71.80
2023-03-23T16:27:54.886Z,71.40
2023-03-23T16:30:25.866Z,71.90
2023-03-23T16:32:55.401Z,71.70
2023-03-23T16:35:23.815Z,72.50
2023-03-23T16:38:08.487Z,74.20
2023-03-23T16:40:38.971Z,77.30
2023-03-23T16:43:09.099Z,77.60
2023-03-23T16:45:37.148Z,79.30
2023-03-23T16:48:05.394Z,80.90
2023-03-23T16:50:32.553Z,84.00
2023-03-23T16:52:59.413Z,85.60
2023-03-23T16:55:27.171Z,87.30
2023-03-23T16:58:05.482Z,87.60
2023-03-23T17:00:41.054Z,90.10
2023-03-23T17:03:08.242Z,90.00
2023-03-23T17:05:36.139Z,90.80
2023-03-23T17:08:03.068Z,91.40
2023-03-23T17:10:30.057Z,91.00
2023-03-23T17:12:56.902Z,91.60
2023-03-23T17:15:25.559Z,92.80
2023-03-23T17:17:52.574Z,92.90
2023-03-23T17:20:19.601Z,93.30
2023-03-23T17:22:46.463Z,93.50
2023-03-23T17:25:13.314Z,93.70
2023-03-23T17:27:41.111Z,95.20
2023-03-23T17:30:08.715Z,95.30
2023-03-23T17:32:36.644Z,94.70
2023-03-23T17:35:05.443Z,95.20
2023-03-23T17:37:32.801Z,96.00
2023-03-23T17:39:59.619Z,97.90
2023-03-23T17:42:27.048Z,98.70
2023-03-23T17:44:53.934Z,98.90
2023-03-23T17:47:20.946Z,99.90
2023-03-23T17:49:48.102Z,99.90
2023-03-23T17:52:14.893Z,99.90
2023-03-23T17:54:41.950Z,99.90
2023-03-23T17:57:09.156Z,99.90
2023-03-23T17:59:36.173Z,99.90
2023-03-23T18:02:03.078Z,99.90
2023-03-23T18:04:29.878Z,99.90
2023-03-23T18:06:56.991Z,99.90
2023-03-23T18:09:24.099Z,99.90
2023-03-23T18:11:51.238Z,99.90
2023-03-23T18:14:18.521Z,99.90
2023-03-23T18:16:45.354Z,99.90
2023-03-23T18:19:12.280Z,99.90
2023-03-23T18:21:39.180Z,99.90
2023-03-23T18:24:06.375Z,99.90
2023-03-23T18:26:33.250Z,99.90
2023-03-23T18:29:00.695Z,99.90
2023-03-23T18:31:27.627Z,99.90
2023-03-23T18:33:55.221Z,99.90
2023-03-23T18:36:23.862Z,99.90
2023-03-23T18:38:51.333Z,99.90
2023-03-23T18:41:18.378Z,99.90
2023-03-23T18:43:45.495Z,99.90
2023-03-23T18:46:12.387Z,99.90
2023-03-23T18:48:39.287Z,99.90
2023-03-23T18:51:06.424Z,99.90
2023-03-23T18:53:33.253Z,99.90
2023-03-23T18:56:12.075Z,99.90
2023-03-23T18:58:39.216Z,99.90
2023-03-23T19:01:08.071Z,99.90
2023-03-23T19:03:35.576Z,99.90
2023-03-23T19:06:02.616Z,99.90
2023-03-23T19:08:29.719Z,99.90
2023-03-23T19:11:01.090Z,99.90
2023-03-23T19:13:34.025Z,99.90
2023-03-23T19:16:01.008Z,99.90
2023-03-23T19:18:27.956Z,99.90
2023-03-23T19:21:13.525Z,99.90
2023-03-23T19:23:41.693Z,99.90
2023-03-23T19:26:08.513Z,99.90
2023-03-23T19:31:05.576Z,99.40
2023-03-23T19:33:33.393Z,99.80
2023-03-23T19:36:09.334Z,99.90
2023-03-23T19:38:39.701Z,99.50
2023-03-23T19:41:06.914Z,99.90
2023-03-23T19:43:36.183Z,99.90
2023-03-23T19:46:04.658Z,97.70
2023-03-23T19:48:31.532Z,97.80
2023-03-23T19:50:58.655Z,99.20
2023-03-23T19:53:26.685Z,99.10
2023-03-23T19:55:53.669Z,96.70
2023-03-23T19:58:21.134Z,96.60
2023-03-23T20:00:48.681Z,97.00
2023-03-23T20:03:16.001Z,98.20
2023-03-23T20:05:43.210Z,98.50
2023-03-23T20:08:10.482Z,97.40
2023-03-23T20:10:37.633Z,97.30
2023-03-23T20:13:04.992Z,96.00
2023-03-23T20:15:32.084Z,96.20
2023-03-23T20:17:59.298Z,95.70
2023-03-23T20:20:26.573Z,95.30
2023-03-23T20:22:55.167Z,95.50
2023-03-23T20:25:23.388Z,95.50
2023-03-23T20:27:50.588Z,92.20
2023-03-23T20:30:18.839Z,93.90
2023-03-23T20:32:46.497Z,91.40
2023-03-23T20:35:14.770Z,89.90
2023-03-23T20:37:41.881Z,90.20
2023-03-23T20:40:14.969Z,89.50
2023-03-23T20:42:43.952Z,87.00
2023-03-23T20:45:12.046Z,89.30
2023-03-23T20:47:39.177Z,89.70
2023-03-23T20:50:07.362Z,87.40
2023-03-23T20:52:34.280Z,84.90
2023-03-23T20:55:01.174Z,83.20
2023-03-23T20:57:28.859Z,80.20
2023-03-23T20:59:55.820Z,80.10
2023-03-23T21:02:25.888Z,79.90
2023-03-23T21:04:53.196Z,78.50
2023-03-23T21:07:23.157Z,80.20
2023-03-23T21:09:50.128Z,83.80
2023-03-23T21:12:16.972Z,85.30
2023-03-23T21:14:45.042Z,84.80
2023-03-23T21:17:11.872Z,82.70
2023-03-23T21:19:38.852Z,83.20
2023-03-23T21:22:05.667Z,80.50
2023-03-23T21:24:32.912Z,78.60
2023-03-23T21:27:01.044Z,76.80
2023-03-23T21:29:28.326Z,77.20
2023-03-23T21:32:07.604Z,79.30
2023-03-23T21:34:36.745Z,74.10
2023-03-23T21:37:03.652Z,72.60
2023-03-23T21:39:30.474Z,75.10
2023-03-23T21:41:59.399Z,71.30
2023-03-23T21:44:26.493Z,73.50
2023-03-23T21:46:54.382Z,72.40
2023-03-23T21:49:21.418Z,71.80
2023-03-23T21:51:49.483Z,69.50
2023-03-23T21:54:16.350Z,69.80
2023-03-23T21:56:43.182Z,69.50
2023-03-23T21:59:10.159Z,68.30
2023-03-23T22:01:37.280Z,69.20
2023-03-23T22:04:04.642Z,67.90
2023-03-23T22:06:34.255Z,67.50
2023-03-23T22:09:02.196Z,69.10
2023-03-23T22:11:31.139Z,66.90
2023-03-23T22:13:58.190Z,66.00
2023-03-23T22:16:25.657Z,67.10
2023-03-23T22:18:52.786Z,66.50
2023-03-23T22:21:21.989Z,66.00
2023-03-23T22:23:49.127Z,64.90
2023-03-23T22:26:16.564Z,65.50
2023-03-23T22:28:44.062Z,66.00
2023-03-23T22:31:18.728Z,64.70
2023-03-23T22:33:46.252Z,65.30
2023-03-23T22:36:13.250Z,65.30
2023-03-23T22:38:42.113Z,64.70
2023-03-23T22:41:09.355Z,66.90
2023-03-23T22:43:36.972Z,66.30
2023-03-23T22:46:04.606Z,64.70
2023-03-23T22:48:31.745Z,65.40
2023-03-23T22:50:58.571Z,67.70
2023-03-23T22:53:25.476Z,67.90
2023-03-23T22:55:54.304Z,68.80
2023-03-23T22:58:21.177Z,70.60
2023-03-23T23:00:49.588Z,71.80
2023-03-23T23:03:16.731Z,72.70
2023-03-23T23:05:49.309Z,69.50
2023-03-23T23:08:17.842Z,71.60
2023-03-23T23:10:46.341Z,73.10
2023-03-23T23:13:13.588Z,72.10
2023-03-23T23:15:43.443Z,75.10
2023-03-23T23:18:10.369Z,73.30
2023-03-23T23:20:37.227Z,72.70
2023-03-23T23:23:04.249Z,74.20
2023-03-23T23:25:31.307Z,73.10
2023-03-23T23:27:59.014Z,71.20
2023-03-23T23:30:26.622Z,70.50
2023-03-23T23:32:53.583Z,72.20
2023-03-23T23:35:21.268Z,72.10
2023-03-23T23:37:48.365Z,71.20
2023-03-23T23:40:15.709Z,71.20
2023-03-23T23:42:43.605Z,70.50
2023-03-23T23:45:10.458Z,71.60
2023-03-23T23:47:37.875Z,71.00
2023-03-23T23:50:06.751Z,71.00
2023-03-23T23:52:34.469Z,72.40
2023-03-23T23:55:01.369Z,72.50
2023-03-23T23:57:28.158Z,71.70
2023-03-23T23:59:55.021Z,71.50
